Time;durP1;ratioP1;P1;durP2;ratioP2;P2;SDS_P1;SDS_P2;PMS_P1;PMS_P2;Temp;Humidity;BMP_temperature;BMP_pressure;BME280_temperature;BME280_humidity;BME280_pressure;Samples;Min_cycle;Max_cycle;Signal;HPM_P1;HPM_P2
2020/12/28 00:00:49;;;;;;;6.37;5.77;;;;;;;3.78;78.67;97619.66;5017840;28;20465;-73
2020/12/28 00:03:14;;;;;;;7.10;6.40;;;;;;;3.83;78.09;97623.84;5018284;28;20262;-74
2020/12/28 00:05:40;;;;;;;6.60;6.10;;;;;;;3.97;76.83;97623.66;5018264;28;20175;-73
2020/12/28 00:08:05;;;;;;;5.60;5.10;;;;;;;4.07;76.93;97623.53;5018967;28;20178;-74
2020/12/28 00:10:31;;;;;;;6.40;5.80;;;;;;;3.73;77.42;97626.56;5019518;28;20171;-73
2020/12/28 00:12:56;;;;;;;6.00;5.50;;;;;;;3.64;78.46;97625.81;5019256;28;20274;-73
2020/12/28 00:15:24;;;;;;;5.90;5.40;;;;;;;3.96;77.72;97629.69;5019375;28;20175;-73
2020/12/28 00:17:52;;;;;;;5.53;5.03;;;;;;;3.86;77.63;97623.81;5019728;28;20194;-73
2020/12/28 00:20:19;;;;;;;6.37;5.40;;;;;;;3.65;78.16;97622.38;5019064;28;20468;-74
2020/12/28 00:22:45;;;;;;;6.10;5.60;;;;;;;3.89;77.54;97630.66;5019349;28;20469;-73
2020/12/28 00:25:11;;;;;;;5.70;5.20;;;;;;;4.13;76.65;97624.28;5019067;28;20726;-72
2020/12/28 00:27:36;;;;;;;5.80;5.30;;;;;;;4.00;77.10;97631.34;5019425;28;20194;-74
2020/12/28 00:30:03;;;;;;;5.07;4.57;;;;;;;3.99;76.99;97624.50;5019291;28;20257;-74
2020/12/28 00:32:28;;;;;;;4.70;4.30;;;;;;;3.79;77.18;97631.63;5019152;28;20179;-74
2020/12/28 00:34:54;;;;;;;5.30;4.70;;;;;;;3.83;77.43;97612.69;5018325;28;20469;-73
2020/12/28 00:37:19;;;;;;;5.50;5.00;;;;;;;3.66;77.36;97624.06;5018637;28;20473;-72
2020/12/28 00:39:45;;;;;;;5.50;5.00;;;;;;;4.08;76.74;97613.19;5018854;28;20173;-74
2020/12/28 00:42:10;;;;;;;4.57;4.17;;;;;;;3.90;75.98;97628.91;5018931;28;20257;-73
2020/12/28 00:44:35;;;;;;;4.90;4.40;;;;;;;3.89;77.15;97633.22;5019288;28;20167;-73
2020/12/28 00:47:01;;;;;;;5.07;4.67;;;;;;;4.20;75.49;97613.00;5025621;28;20441;-73
2020/12/28 00:49:26;;;;;;;4.50;4.20;;;;;;;4.16;75.94;97619.09;5018525;28;20175;-73
2020/12/28 00:51:51;;;;;;;4.70;4.30;;;;;;;3.84;76.79;97619.53;5023231;28;20198;-73
2020/12/28 00:54:17;;;;;;;5.07;4.67;;;;;;;4.12;76.19;97608.84;5038297;28;20202;-73
2020/12/28 00:56:42;;;;;;;5.00;4.60;;;;;;;4.14;76.00;97619.97;5037487;28;20174;-73
2020/12/28 00:59:07;;;;;;;5.30;4.80;;;;;;;4.24;75.61;97613.81;5030249;28;20206;-73
2020/12/28 01:01:33;;;;;;;4.80;4.40;;;;;;;4.14;75.72;97623.44;5029381;28;20200;-72
2020/12/28 01:03:58;;;;;;;4.60;4.20;;;;;;;4.05;76.01;97606.34;5018119;28;20179;-72
2020/12/28 01:06:23;;;;;;;5.37;4.87;;;;;;;4.04;75.62;97608.97;5028221;28;20185;-73
2020/12/28 01:08:51;;;;;;;5.00;4.63;;;;;;;3.91;76.44;97615.16;5018425;28;20175;-73
2020/12/28 01:11:20;;;;;;;4.90;4.50;;;;;;;3.99;76.16;97608.16;5036609;28;20316;-72
2020/12/28 01:13:45;;;;;;;4.40;4.00;;;;;;;3.93;76.12;97614.25;5037649;28;20531;-72
2020/12/28 01:16:11;;;;;;;5.43;4.93;;;;;;;4.12;75.63;97604.53;5037956;28;20765;-73
2020/12/28 01:18:36;;;;;;;4.87;4.47;;;;;;;4.00;75.49;97609.88;5037798;28;20245;-74
2020/12/28 01:21:02;;;;;;;5.10;4.60;;;;;;;3.97;75.39;97623.66;5038197;28;20252;-73
2020/12/28 01:23:27;;;;;;;5.13;4.67;;;;;;;4.11;75.43;97614.88;5037830;28;20220;-73
2020/12/28 01:25:52;;;;;;;4.60;4.20;;;;;;;4.26;74.24;97617.22;5037792;28;20222;-73
2020/12/28 01:28:18;;;;;;;4.70;4.30;;;;;;;4.58;73.33;97609.84;5038053;28;20179;-73
2020/12/28 01:30:43;;;;;;;4.70;4.30;;;;;;;4.53;74.05;97612.50;5022871;28;20853;-73
2020/12/28 01:33:08;;;;;;;4.70;4.30;;;;;;;4.42;74.15;97604.94;5017131;28;20488;-74
2020/12/28 01:35:34;;;;;;;6.13;4.47;;;;;;;4.17;74.45;97620.78;5018382;28;20248;-74
2020/12/28 01:37:59;;;;;;;4.47;4.10;;;;;;;4.64;73.10;97602.84;5017947;28;20163;-73
2020/12/28 01:40:24;;;;;;;4.37;3.97;;;;;;;4.55;72.95;97609.00;5017806;28;20461;-73
2020/12/28 01:42:50;;;;;;;3.90;3.60;;;;;;;4.19;74.78;97613.03;5018137;28;20213;-74
2020/12/28 01:45:15;;;;;;;4.50;4.10;;;;;;;4.61;72.90;97613.22;5017862;28;20554;-74
2020/12/28 01:47:40;;;;;;;4.17;3.87;;;;;;;4.46;72.78;97613.47;5017887;28;20166;-73
2020/12/28 01:50:06;;;;;;;4.13;3.77;;;;;;;4.67;72.59;97609.69;5017150;28;20167;-73
2020/12/28 01:52:31;;;;;;;4.00;3.70;;;;;;;4.72;71.74;97619.06;5017563;28;20226;-72
2020/12/28 01:54:57;;;;;;;4.00;3.70;;;;;;;4.47;72.57;97622.94;5017543;28;20202;-73
2020/12/28 01:57:22;;;;;;;4.10;3.70;;;;;;;4.55;72.12;97623.66;5018085;28;20428;-73
2020/12/28 01:59:48;;;;;;;4.37;4.07;;;;;;;4.89;71.37;97621.31;5017352;28;20561;-72
2020/12/28 02:02:15;;;;;;;4.57;4.17;;;;;;;4.69;72.55;97623.41;5017515;28;20257;-73
2020/12/28 02:04:41;;;;;;;4.33;4.03;;;;;;;4.76;72.15;97617.25;5017177;28;20250;-74
2020/12/28 02:07:07;;;;;;;4.03;3.73;;;;;;;4.59;73.24;97620.13;5017455;28;20414;-73
2020/12/28 02:09:32;;;;;;;4.40;4.10;;;;;;;4.66;72.90;97619.16;5020443;28;20179;-73
2020/12/28 02:11:57;;;;;;;4.50;4.10;;;;;;;4.35;74.91;97605.91;5031891;28;20174;-72
2020/12/28 02:14:22;;;;;;;5.00;4.60;;;;;;;4.23;75.69;97606.94;5036236;28;20251;-73
2020/12/28 02:16:48;;;;;;;5.07;4.63;;;;;;;4.36;75.12;97598.16;5017431;28;20183;-74
2020/12/28 02:19:13;;;;;;;4.33;3.93;;;;;;;4.53;74.21;97604.75;5017664;28;20198;-74
2020/12/28 02:21:38;;;;;;;4.87;4.47;;;;;;;4.32;74.99;97608.53;5017365;28;20187;-73
2020/12/28 02:24:04;;;;;;;4.33;4.00;;;;;;;4.64;73.65;97600.28;5029720;28;20226;-73
2020/12/28 02:26:29;;;;;;;4.40;4.00;;;;;;;4.55;74.20;97605.59;5023325;28;20258;-73
2020/12/28 02:28:54;;;;;;;4.63;4.23;;;;;;;4.45;74.97;97601.44;5017197;28;20175;-73
2020/12/28 02:31:20;;;;;;;4.20;3.90;;;;;;;4.22;75.34;97610.41;5017380;28;20171;-73
2020/12/28 02:33:45;;;;;;;4.37;4.00;;;;;;;4.64;73.73;97597.69;5017445;28;20484;-72
2020/12/28 02:36:10;;;;;;;4.60;4.20;;;;;;;4.27;75.43;97597.44;5017349;28;20198;-73
2020/12/28 02:38:36;;;;;;;4.77;4.30;;;;;;;4.25;75.92;97605.22;5016416;28;20178;-72
2020/12/28 02:41:03;;;;;;;4.43;4.03;;;;;;;4.67;74.65;97604.53;5017450;28;20166;-72
2020/12/28 02:43:29;;;;;;;4.47;4.07;;;;;;;4.31;75.61;97602.53;5017209;28;20472;-73
2020/12/28 02:45:56;;;;;;;4.30;4.00;;;;;;;4.79;74.23;97613.78;5017045;28;20410;-73
2020/12/28 02:48:21;;;;;;;4.40;4.10;;;;;;;4.50;74.99;97612.53;5017325;28;20239;-73
2020/12/28 02:50:46;;;;;;;3.90;3.60;;;;;;;4.36;75.52;97612.78;5017046;28;20472;-73
2020/12/28 02:53:11;;;;;;;4.37;4.03;;;;;;;4.86;74.39;97613.66;5016607;28;20210;-72
2020/12/28 02:55:37;;;;;;;4.33;3.93;;;;;;;4.80;73.71;97610.31;5017203;28;20488;-73
2020/12/28 02:58:02;;;;;;;4.00;3.70;;;;;;;4.97;73.62;97617.78;5016897;28;20178;-72
2020/12/28 03:00:27;;;;;;;4.47;4.17;;;;;;;4.48;74.97;97612.56;5016784;28;20491;-73
2020/12/28 03:02:53;;;;;;;4.10;3.80;;;;;;;4.63;73.75;97616.63;5017287;28;20355;-72
2020/12/28 03:05:18;;;;;;;4.20;3.90;;;;;;;4.72;74.01;97618.19;5016935;28;20261;-73
2020/12/28 03:07:43;;;;;;;4.03;3.60;;;;;;;4.76;74.36;97626.75;5016978;28;20174;-74
2020/12/28 03:10:09;;;;;;;4.10;3.70;;;;;;;4.67;74.47;97612.28;5017018;28;20241;-73
2020/12/28 03:12:34;;;;;;;4.33;4.03;;;;;;;4.56;74.68;97609.88;5016898;28;20203;-73
2020/12/28 03:14:59;;;;;;;3.90;3.60;;;;;;;4.48;74.92;97619.44;5016753;28;20238;-73
2020/12/28 03:17:24;;;;;;;4.07;3.77;;;;;;;4.66;74.44;97610.56;5017071;28;20181;-73
2020/12/28 03:19:50;;;;;;;4.07;3.77;;;;;;;4.81;73.29;97615.44;5019064;28;20483;-73
2020/12/28 03:22:15;;;;;;;4.20;3.90;;;;;;;5.00;73.42;97618.56;5020256;28;20217;-72
2020/12/28 03:24:40;;;;;;;4.10;3.80;;;;;;;4.85;73.93;97626.59;5020384;28;20249;-73
2020/12/28 03:27:05;;;;;;;3.80;3.50;;;;;;;4.67;74.82;97618.28;5020260;28;20545;-73
2020/12/28 03:29:31;;;;;;;3.90;3.50;;;;;;;4.61;74.85;97618.38;5020301;28;20171;-72
2020/12/28 03:31:57;;;;;;;3.87;3.53;;;;;;;4.60;75.76;97619.28;5020157;28;20262;-74
2020/12/28 03:34:22;;;;;;;4.13;3.83;;;;;;;4.43;75.31;97616.13;5020104;28;20552;-73
2020/12/28 03:36:48;;;;;;;4.50;3.83;;;;;;;4.62;74.60;97620.06;5020495;28;20182;-72
2020/12/28 03:39:13;;;;;;;4.50;4.10;;;;;;;4.66;74.81;97615.72;5019977;28;20171;-72
2020/12/28 03:41:38;;;;;;;4.13;3.83;;;;;;;4.79;74.55;97621.50;5020013;28;20182;-73
2020/12/28 03:44:04;;;;;;;4.17;3.87;;;;;;;4.70;74.91;97628.53;5020280;28;20167;-73
2020/12/28 03:46:29;;;;;;;4.87;4.37;;;;;;;4.52;75.59;97624.56;5019871;28;20179;-73
2020/12/28 03:48:54;;;;;;;4.00;3.70;;;;;;;4.53;75.31;97638.28;5019618;28;20428;-73
2020/12/28 03:51:20;;;;;;;4.60;4.20;;;;;;;4.51;75.98;97648.63;5020218;28;20298;-73
2020/12/28 03:53:45;;;;;;;4.20;3.80;;;;;;;4.54;75.62;97648.56;5019679;28;20202;-72
2020/12/28 03:56:10;;;;;;;4.27;3.93;;;;;;;4.80;74.64;97643.88;5019667;28;20167;-73
2020/12/28 03:58:36;;;;;;;4.10;3.80;;;;;;;5.08;74.38;97645.97;5020048;28;20217;-73
2020/12/28 04:01:01;;;;;;;3.80;3.50;;;;;;;4.66;74.73;97652.69;5019482;28;20545;-73
2020/12/28 04:03:26;;;;;;;4.20;3.90;;;;;;;4.77;74.91;97638.78;5019479;28;20202;-74
2020/12/28 04:05:52;;;;;;;4.03;3.70;;;;;;;4.97;74.61;97635.84;5019982;28;20174;-73
2020/12/28 04:08:17;;;;;;;4.80;4.40;;;;;;;4.82;75.15;97632.66;5019562;28;20575;-73
2020/12/28 04:10:43;;;;;;;4.50;4.20;;;;;;;5.16;73.90;97620.88;5019400;28;20536;-73
2020/12/28 04:13:08;;;;;;;4.47;4.07;;;;;;;4.89;74.51;97615.31;5019733;28;20186;-73
2020/12/28 04:15:33;;;;;;;4.50;4.10;;;;;;;4.66;75.87;97615.72;5019467;28;20178;-73
2020/12/28 04:17:58;;;;;;;4.50;4.10;;;;;;;4.87;75.07;97610.19;5019277;28;20167;-72
2020/12/28 04:20:24;;;;;;;3.90;3.60;;;;;;;4.84;75.60;97606.81;5019623;28;20500;-73
2020/12/28 04:22:49;;;;;;;4.60;4.20;;;;;;;4.62;76.62;97612.34;5018500;28;20556;-72
2020/12/28 04:25:15;;;;;;;4.27;3.87;;;;;;;4.80;75.86;97610.31;5018811;28;20219;-74
2020/12/28 04:27:41;;;;;;;5.03;4.43;;;;;;;4.76;75.56;97606.94;5019548;28;20182;-73
2020/12/28 04:30:06;;;;;;;4.80;4.40;;;;;;;5.02;74.95;97608.19;5018038;28;20270;-73
2020/12/28 04:32:31;;;;;;;6.73;4.43;;;;;;;4.84;76.38;97604.22;5018778;28;20492;-73
2020/12/28 04:34:57;;;;;;;5.30;4.80;;;;;;;4.88;76.29;97606.75;5019168;28;20451;-73
2020/12/28 04:37:22;;;;;;;5.33;4.83;;;;;;;4.69;76.22;97600.19;5019006;28;20175;-73
2020/12/28 04:39:48;;;;;;;5.17;4.67;;;;;;;4.74;76.81;97605.28;5018888;28;20612;-73
2020/12/28 04:42:13;;;;;;;5.07;4.67;;;;;;;4.42;77.58;97619.56;5019347;28;20576;-73
2020/12/28 04:44:38;;;;;;;5.20;4.70;;;;;;;4.43;77.71;97621.28;5018828;28;20549;-73
2020/12/28 04:47:03;;;;;;;5.90;5.40;;;;;;;4.67;77.07;97617.44;5018734;28;20202;-73
2020/12/28 04:49:29;;;;;;;5.20;4.80;;;;;;;4.70;77.12;97614.78;5019050;28;20205;-73
2020/12/28 04:51:55;;;;;;;5.60;5.10;;;;;;;4.68;76.58;97616.53;5017876;28;20191;-73
2020/12/28 04:54:20;;;;;;;5.30;4.80;;;;;;;4.49;77.70;97628.91;5001593;28;20452;-73
2020/12/28 04:56:46;;;;;;;6.13;5.53;;;;;;;4.67;77.31;97626.03;5019107;28;20174;-73
2020/12/28 04:59:11;;;;;;;5.47;4.97;;;;;;;4.67;76.46;97631.19;5018482;28;20557;-73
2020/12/28 05:01:36;;;;;;;5.13;4.63;;;;;;;4.55;77.42;97633.97;5018579;28;20181;-72
2020/12/28 05:04:02;;;;;;;5.10;4.60;;;;;;;4.71;76.30;97632.84;5018847;28;20163;-72
2020/12/28 05:06:27;;;;;;;5.27;4.87;;;;;;;4.94;76.15;97625.56;5018602;28;20171;-73
2020/12/28 05:08:54;;;;;;;5.37;4.90;;;;;;;5.28;74.92;97627.53;5018284;28;20187;-73
2020/12/28 05:11:20;;;;;;;5.20;4.70;;;;;;;5.21;75.08;97630.22;5018802;28;20159;-72
2020/12/28 05:13:48;;;;;;;5.60;4.80;;;;;;;4.97;75.57;97631.53;5018263;28;20468;-73
2020/12/28 05:16:14;;;;;;;5.40;5.00;;;;;;;4.81;76.97;97640.41;5018459;28;20215;-72
2020/12/28 05:18:39;;;;;;;5.40;4.90;;;;;;;5.04;76.48;97627.94;5018668;28;20464;-74
2020/12/28 05:21:05;;;;;;;5.20;4.70;;;;;;;4.93;76.49;97629.88;5018242;28;20171;-74
2020/12/28 05:23:32;;;;;;;7.27;5.47;;;;;;;5.17;75.33;97628.56;5018181;28;20179;-72
2020/12/28 05:25:57;;;;;;;6.13;4.87;;;;;;;4.66;77.71;97626.06;5018422;28;20218;-73
2020/12/28 05:28:27;;;;;;;5.97;5.37;;;;;;;4.99;76.79;97634.06;5017276;28;20468;-73
2020/12/28 05:30:53;;;;;;;5.10;4.70;;;;;;;4.68;77.49;97637.19;5017929;28;20174;-73
2020/12/28 05:33:19;;;;;;;5.60;5.10;;;;;;;5.02;76.14;97628.84;5018328;28;20885;-73
2020/12/28 05:35:45;;;;;;;5.40;4.90;;;;;;;4.88;76.66;97621.34;5017337;28;20737;-72
2020/12/28 05:38:11;;;;;;;5.10;4.60;;;;;;;4.94;76.70;97644.50;5017186;28;20512;-73
2020/12/28 05:40:37;;;;;;;4.93;4.50;;;;;;;4.80;76.71;97636.97;5018273;28;20424;-72
2020/12/28 05:43:03;;;;;;;5.53;5.03;;;;;;;4.97;76.23;97636.69;5017614;28;20410;-72
2020/12/28 05:45:29;;;;;;;4.40;4.10;;;;;;;4.90;76.82;97645.44;5017873;28;20446;-73
2020/12/28 05:47:56;;;;;;;4.43;4.10;;;;;;;4.65;77.31;97634.66;5018162;28;20409;-73
2020/12/28 05:50:26;;;;;;;4.37;3.97;;;;;;;4.75;77.30;97632.78;5017571;28;20253;-73
2020/12/28 05:52:54;;;;;;;3.97;3.67;;;;;;;4.37;78.00;97632.50;5017535;28;20437;-73
2020/12/28 05:55:25;;;;;;;4.17;3.87;;;;;;;4.48;77.28;97630.63;5018003;28;20406;-73
2020/12/28 05:57:59;;;;;;;4.53;4.17;;;;;;;4.84;76.19;97624.88;5017599;28;20414;-74
2020/12/28 06:00:25;;;;;;;4.53;4.13;;;;;;;4.52;77.60;97615.97;5017593;28;20479;-73
2020/12/28 06:02:51;;;;;;;4.77;4.30;;;;;;;4.65;76.35;97621.75;5016928;28;20722;-72
2020/12/28 06:05:18;;;;;;;4.90;4.40;;;;;;;4.60;78.12;97633.88;5017633;28;20425;-73
2020/12/28 06:07:44;;;;;;;5.20;4.17;;;;;;;4.78;77.00;97627.56;5017864;28;20470;-73
2020/12/28 06:10:11;;;;;;;4.97;4.57;;;;;;;4.63;77.80;97620.94;5016685;28;20414;-73
2020/12/28 06:12:37;;;;;;;4.60;4.20;;;;;;;4.38;77.99;97624.78;5017477;28;20406;-73
2020/12/28 06:15:04;;;;;;;5.10;4.60;;;;;;;5.30;75.49;97624.00;5017771;28;20686;-73
2020/12/28 06:17:34;;;;;;;5.17;4.73;;;;;;;5.19;75.61;97631.13;5016793;28;20428;-72
2020/12/28 06:20:01;;;;;;;5.00;4.60;;;;;;;4.82;76.30;97630.06;5017248;28;20445;-73
2020/12/28 06:22:26;;;;;;;4.43;4.03;;;;;;;4.38;78.39;97647.13;5017819;28;20402;-73
2020/12/28 06:24:56;;;;;;;5.17;4.57;;;;;;;4.53;77.31;97653.75;5017268;28;20512;-73
2020/12/28 06:27:26;;;;;;;4.43;4.07;;;;;;;4.34;77.06;97672.13;5017648;28;20206;-74
2020/12/28 06:29:51;;;;;;;4.17;3.87;;;;;;;4.00;78.06;97675.16;5017219;28;20406;-73
2020/12/28 06:32:17;;;;;;;4.30;3.67;;;;;;;4.07;77.39;97669.94;5017288;28;20410;-73
2020/12/28 06:34:46;;;;;;;6.50;4.27;;;;;;;4.36;77.11;97674.69;5016753;28;20202;-73
2020/12/28 06:37:12;;;;;;;4.70;4.30;;;;;;;4.09;76.47;97681.09;5017273;28;20202;-73
2020/12/28 06:39:37;;;;;;;5.43;4.37;;;;;;;3.98;76.43;97678.66;5016448;28;20723;-74
2020/12/28 06:42:10;;;;;;;4.20;3.80;;;;;;;4.23;75.16;97686.88;5017557;28;20417;-74
2020/12/28 06:44:36;;;;;;;4.40;4.00;;;;;;;4.18;74.73;97683.50;5017307;28;20407;-72
2020/12/28 06:47:15;;;;;;;4.73;4.33;;;;;;;4.29;74.55;97661.03;5017201;28;20433;-73
2020/12/28 06:49:43;;;;;;;6.23;4.10;;;;;;;4.37;73.86;97663.47;5017013;28;20213;-74
2020/12/28 06:52:08;;;;;;;5.33;4.27;;;;;;;4.54;73.16;97658.06;5016842;28;20882;-74
2020/12/28 06:54:33;;;;;;;4.20;3.80;;;;;;;3.87;74.99;97660.75;5018285;28;20532;-73
2020/12/28 06:57:06;;;;;;;4.80;4.27;;;;;;;4.54;72.72;97648.56;5020968;28;20171;-74
2020/12/28 06:59:32;;;;;;;4.60;4.20;;;;;;;4.34;72.39;97650.63;5021171;28;20159;-74
2020/12/28 07:01:59;;;;;;;4.87;4.07;;;;;;;4.28;71.94;97655.88;5020780;28;20467;-74
2020/12/28 07:04:26;;;;;;;4.93;4.47;;;;;;;4.35;72.35;97660.06;5020734;28;20459;-73
2020/12/28 07:07:02;;;;;;;4.63;4.23;;;;;;;4.48;71.04;97669.31;5021000;28;20406;-73
2020/12/28 07:09:27;;;;;;;4.90;4.50;;;;;;;4.10;71.61;97668.16;5020684;28;20414;-73
2020/12/28 07:11:53;;;;;;;5.07;4.17;;;;;;;4.33;71.32;97669.53;5020609;28;20484;-73
2020/12/28 07:14:19;;;;;;;5.00;4.57;;;;;;;4.02;71.59;97678.56;5020347;28;20276;-73
2020/12/28 07:16:45;;;;;;;4.87;4.37;;;;;;;3.97;71.74;97687.25;5020376;28;20427;-74
2020/12/28 07:19:10;;;;;;;4.30;3.90;;;;;;;3.99;72.22;97694.09;5020694;28;20453;-74
2020/12/28 07:21:35;;;;;;;4.90;4.30;;;;;;;4.28;71.15;97699.72;5020459;28;20563;-74
2020/12/28 07:24:05;;;;;;;4.87;4.47;;;;;;;4.55;70.10;97693.31;5020353;28;20226;-74
2020/12/28 07:26:31;;;;;;;5.17;4.67;;;;;;;4.19;70.87;97704.13;5020791;28;20163;-74
2020/12/28 07:28:56;;;;;;;4.60;4.20;;;;;;;4.15;70.52;97688.72;5003175;28;20428;-74
2020/12/28 07:31:25;;;;;;;4.70;4.30;;;;;;;4.20;70.09;97700.66;5020213;28;20167;-74
2020/12/28 07:33:50;;;;;;;4.57;4.17;;;;;;;4.07;70.32;97690.56;5020662;28;20602;-74
2020/12/28 07:36:20;;;;;;;4.80;4.40;;;;;;;4.22;70.56;97685.16;5020109;28;20434;-73
2020/12/28 07:38:46;;;;;;;4.70;4.30;;;;;;;4.00;70.85;97687.19;5020251;28;20179;-74
2020/12/28 07:41:13;;;;;;;4.40;4.00;;;;;;;4.42;69.15;97699.53;5020640;28;20807;-73
2020/12/28 07:43:39;;;;;;;5.23;4.77;;;;;;;4.46;69.77;97683.13;5020071;28;20457;-74
2020/12/28 07:46:31;;;;;;;4.90;4.50;;;;;;;4.24;69.39;97680.00;5019868;28;20501;-73
2020/12/28 07:48:58;;;;;;;5.17;4.67;;;;;;;3.86;71.13;97677.09;5019833;28;20229;-74
2020/12/28 07:51:24;;;;;;;4.90;4.50;;;;;;;4.03;70.56;97682.88;5019022;28;20446;-73
2020/12/28 07:53:53;;;;;;;5.67;5.07;;;;;;;4.19;69.88;97701.56;5019666;28;20542;-73
2020/12/28 07:56:42;;;;;;;5.50;4.67;;;;;;;3.94;71.04;97693.28;5018865;28;20432;-73
2020/12/28 07:59:45;;;;;;;6.00;5.50;;;;;;;3.84;70.44;97702.00;5019496;28;20480;-73
2020/12/28 08:02:22;;;;;;;5.23;4.73;;;;;;;4.09;70.44;97696.56;5019820;28;20665;-73
2020/12/28 08:04:47;;;;;;;5.90;4.67;;;;;;;4.19;69.66;97698.97;5019443;28;20421;-73
2020/12/28 08:07:14;;;;;;;5.80;4.87;;;;;;;3.88;70.47;97693.34;5019500;28;20449;-73
2020/12/28 08:09:40;;;;;;;4.77;4.37;;;;;;;3.80;70.38;97692.59;5019380;28;20186;-73
2020/12/28 08:12:05;;;;;;;5.17;4.67;;;;;;;3.57;71.02;97688.56;5019533;28;20418;-73
2020/12/28 08:14:30;;;;;;;5.53;4.97;;;;;;;3.91;69.86;97692.47;5019613;28;20218;-73
2020/12/28 08:16:56;;;;;;;7.17;4.63;;;;;;;3.54;71.34;97699.78;5019348;28;20545;-72
2020/12/28 08:19:28;;;;;;;5.37;4.87;;;;;;;3.98;69.54;97689.81;5019403;28;20433;-72
2020/12/28 08:21:54;;;;;;;5.57;5.07;;;;;;;3.82;69.36;97696.03;5019551;28;20708;-72
2020/12/28 08:24:21;;;;;;;6.50;5.10;;;;;;;4.13;68.75;97701.63;5019039;28;20505;-73
2020/12/28 08:26:50;;;;;;;5.70;5.00;;;;;;;4.08;68.67;97707.72;5019084;28;20451;-72
2020/12/28 08:29:15;;;;;;;8.23;5.37;;;;;;;3.65;69.80;97732.28;5019259;28;20422;-72
2020/12/28 08:31:42;;;;;;;5.77;4.77;;;;;;;3.87;69.08;97738.06;5019116;28;20422;-73
2020/12/28 08:34:14;;;;;;;5.20;4.60;;;;;;;3.95;68.31;97741.41;5018899;28;20465;-73
2020/12/28 08:36:42;;;;;;;6.00;4.93;;;;;;;3.78;68.54;97748.47;5019350;28;20678;-74
2020/12/28 08:39:15;;;;;;;5.37;4.87;;;;;;;3.78;69.77;97751.06;5018694;28;20430;-73
2020/12/28 08:41:57;;;;;;;5.00;4.60;;;;;;;3.90;68.64;97742.31;5019033;28;20887;-73
2020/12/28 08:44:27;;;;;;;5.50;5.00;;;;;;;3.33;70.26;97754.94;5018881;28;20477;-73
2020/12/28 08:46:52;;;;;;;6.10;4.40;;;;;;;3.79;70.32;97752.72;5018592;28;20426;-73
2020/12/28 08:49:28;;;;;;;5.30;4.80;;;;;;;3.39;70.82;97763.47;5018541;28;20422;-73
2020/12/28 08:51:54;;;;;;;5.40;4.90;;;;;;;3.80;70.35;97754.44;5018591;28;20198;-73
2020/12/28 08:54:26;;;;;;;5.80;5.20;;;;;;;3.83;69.88;97762.13;5018560;28;20484;-73
2020/12/28 08:56:52;;;;;;;6.07;4.93;;;;;;;3.83;69.59;97746.66;5018408;28;20178;-73
2020/12/28 08:59:17;;;;;;;6.70;4.80;;;;;;;4.00;69.10;97749.06;5018745;28;20689;-73
2020/12/28 09:01:44;;;;;;;5.70;5.10;;;;;;;3.47;70.56;97744.50;5018650;28;20455;-74
2020/12/28 09:04:09;;;;;;;6.03;5.03;;;;;;;3.85;69.80;97755.25;5018654;28;20226;-74
2020/12/28 09:06:35;;;;;;;5.83;5.30;;;;;;;3.69;69.90;97770.03;5019670;28;20429;-73
2020/12/28 09:09:00;;;;;;;5.97;5.30;;;;;;;3.58;70.60;97780.44;5025373;28;20459;-74
2020/12/28 09:11:26;;;;;;;8.03;5.53;;;;;;;3.63;70.73;97786.41;5031291;28;20247;-73
2020/12/28 09:13:51;;;;;;;5.93;5.33;;;;;;;3.72;70.31;97790.59;5018490;28;20191;-73
2020/12/28 09:16:16;;;;;;;6.10;5.50;;;;;;;3.60;70.47;97789.03;5017532;28;20182;-74
2020/12/28 09:18:41;;;;;;;6.17;5.30;;;;;;;3.56;70.68;97776.16;5022268;28;20611;-73
2020/12/28 09:21:07;;;;;;;6.10;5.50;;;;;;;3.49;70.77;97773.69;5038189;28;20276;-72
2020/12/28 09:23:32;;;;;;;6.20;5.60;;;;;;;3.65;70.50;97763.19;5037984;28;20197;-72
2020/12/28 09:25:59;;;;;;;7.30;5.10;;;;;;;3.47;70.24;97765.09;5037700;28;20288;-73
2020/12/28 09:28:24;;;;;;;8.50;5.40;;;;;;;3.62;69.99;97761.50;5037894;28;20166;-74
2020/12/28 09:30:50;;;;;;;5.80;5.20;;;;;;;3.81;68.56;97761.31;5030629;28;20724;-73
2020/12/28 09:33:15;;;;;;;7.27;5.70;;;;;;;3.88;68.37;97755.22;5021854;28;20185;-72
2020/12/28 09:35:40;;;;;;;5.90;5.30;;;;;;;4.14;68.57;97756.63;5025553;28;20233;-73
2020/12/28 09:38:06;;;;;;;6.50;5.50;;;;;;;4.21;68.04;97753.94;5029466;28;20524;-72
2020/12/28 09:40:31;;;;;;;5.70;5.20;;;;;;;4.70;66.90;97752.41;5037517;28;20433;-74
2020/12/28 09:42:58;;;;;;;7.23;5.63;;;;;;;4.65;66.79;97758.50;5037744;28;20170;-73
2020/12/28 09:45:36;;;;;;;6.20;5.60;;;;;;;4.26;67.70;97750.44;5037512;28;20178;-73
2020/12/28 09:48:05;;;;;;;7.30;5.27;;;;;;;4.20;68.23;97759.13;5030469;28;20712;-74
2020/12/28 09:50:31;;;;;;;6.00;5.40;;;;;;;4.13;68.60;97750.63;5026694;28;20430;-73
2020/12/28 09:52:56;;;;;;;6.37;5.77;;;;;;;4.78;66.55;97754.03;5016672;28;20456;-73
2020/12/28 09:55:22;;;;;;;6.13;5.53;;;;;;;4.53;67.15;97755.25;5017745;28;20588;-74
2020/12/28 09:57:50;;;;;;;6.10;5.50;;;;;;;4.66;66.60;97744.75;5017608;28;20175;-74
2020/12/28 10:00:15;;;;;;;6.40;5.80;;;;;;;4.99;66.12;97747.66;5017469;28;20465;-74
2020/12/28 10:02:42;;;;;;;6.17;5.37;;;;;;;4.52;67.16;97755.28;5033584;28;20425;-73
2020/12/28 10:05:10;;;;;;;6.30;5.70;;;;;;;4.26;68.03;97753.88;5037212;28;20221;-73
2020/12/28 10:07:37;;;;;;;7.03;6.07;;;;;;;5.12;66.46;97763.81;5037105;28;20421;-73
2020/12/28 10:10:04;;;;;;;6.10;5.50;;;;;;;5.25;65.92;97759.28;5037265;28;20507;-74
2020/12/28 10:12:29;;;;;;;6.70;5.20;;;;;;;5.57;64.59;97756.13;5036367;28;20467;-74
2020/12/28 10:14:54;;;;;;;5.73;5.23;;;;;;;5.23;66.04;97749.81;5029651;28;20481;-72
2020/12/28 10:17:20;;;;;;;5.93;5.43;;;;;;;6.84;60.49;97741.44;5017986;28;20171;-74
2020/12/28 10:19:45;;;;;;;5.97;5.30;;;;;;;7.93;56.93;97742.97;5017336;28;20166;-74
2020/12/28 10:22:12;;;;;;;5.63;5.13;;;;;;;7.71;57.35;97729.75;5017361;28;20175;-74
2020/12/28 10:24:37;;;;;;;6.13;5.10;;;;;;;6.42;60.86;97740.69;5017069;28;20242;-73
2020/12/28 10:27:02;;;;;;;6.73;5.30;;;;;;;6.74;60.18;97740.81;5017198;28;20692;-73
2020/12/28 10:29:27;;;;;;;6.07;5.57;;;;;;;6.63;60.92;97745.41;5020906;28;20193;-73
2020/12/28 10:31:56;;;;;;;5.17;4.67;;;;;;;6.08;62.02;97750.03;5021437;28;20179;-73
2020/12/28 10:34:21;;;;;;;6.13;5.50;;;;;;;5.93;63.60;97745.97;5021255;28;20226;-73
2020/12/28 10:36:46;;;;;;;7.10;5.70;;;;;;;6.17;62.92;97742.06;5021512;28;20445;-74
2020/12/28 10:39:11;;;;;;;6.60;5.90;;;;;;;5.21;65.18;97753.34;5020953;28;20253;-73
2020/12/28 10:41:37;;;;;;;6.60;5.57;;;;;;;5.49;65.21;97765.75;5021165;28;20236;-73
2020/12/28 10:44:02;;;;;;;6.60;6.00;;;;;;;5.62;65.07;97763.81;5028726;28;20194;-74
2020/12/28 10:46:28;;;;;;;7.20;6.50;;;;;;;5.61;64.93;97764.69;5030719;28;20462;-73
2020/12/28 10:48:54;;;;;;;7.00;6.00;;;;;;;5.30;65.79;97770.41;5040744;28;20178;-73
2020/12/28 10:51:19;;;;;;;6.03;5.50;;;;;;;5.51;65.39;97761.44;5022079;28;20206;-74
2020/12/28 10:53:44;;;;;;;7.43;5.70;;;;;;;5.04;67.08;97767.38;5020669;28;20527;-72
2020/12/28 10:56:10;;;;;;;6.53;5.93;;;;;;;5.07;67.60;97761.28;5020902;28;20213;-73
2020/12/28 10:58:35;;;;;;;6.80;6.20;;;;;;;4.94;67.80;97760.66;5021213;28;20179;-73
2020/12/28 11:01:03;;;;;;;6.90;6.10;;;;;;;4.80;67.80;97762.59;5035562;28;20186;-74
2020/12/28 11:03:28;;;;;;;6.50;5.60;;;;;;;4.91;68.77;97760.69;5040433;28;20174;-73
2020/12/28 11:05:53;;;;;;;6.47;5.80;;;;;;;5.10;67.55;97762.97;5040771;28;20420;-73
2020/12/28 11:08:19;;;;;;;7.23;6.50;;;;;;;5.17;67.67;97772.34;5040117;28;20535;-73
2020/12/28 11:10:44;;;;;;;6.17;5.60;;;;;;;5.03;68.35;97759.66;5040180;28;20170;-74
2020/12/28 11:13:09;;;;;;;6.20;5.60;;;;;;;5.16;67.82;97755.16;5040644;28;20163;-73
2020/12/28 11:15:35;;;;;;;5.67;5.17;;;;;;;5.39;66.87;97749.56;5033640;28;20178;-74
2020/12/28 11:18:01;;;;;;;6.27;5.67;;;;;;;5.26;67.11;97751.50;5020406;28;20178;-74
2020/12/28 11:20:26;;;;;;;6.50;5.80;;;;;;;5.34;67.37;97743.63;5020555;28;20171;-74
2020/12/28 11:22:51;;;;;;;7.37;6.13;;;;;;;5.49;67.31;97742.50;5020048;28;20221;-73
2020/12/28 11:25:17;;;;;;;7.53;5.80;;;;;;;5.50;66.78;97750.22;5020040;28;20696;-73
2020/12/28 11:27:43;;;;;;;6.60;6.00;;;;;;;5.28;68.04;97765.25;5020455;28;20275;-72
2020/12/28 11:30:08;;;;;;;14.57;10.57;;;;;;;5.36;68.93;97755.66;5019991;28;20197;-73
2020/12/28 11:32:33;;;;;;;6.97;6.27;;;;;;;5.18;67.84;97758.53;5020010;28;20457;-74
2020/12/28 11:34:59;;;;;;;6.20;5.60;;;;;;;5.22;68.13;97767.94;5020484;28;20268;-74
2020/12/28 11:37:24;;;;;;;7.43;6.73;;;;;;;5.66;66.86;97760.28;5020046;28;20431;-73